SPK403 KBOS-KLAX
Flight info
| Callsign | SPK403 |
|---|---|
| Flight time | N/A |
| Altitude | 38000 |
| Route | HYLND7 HYLND DCT HANAA Q816 HOCKE T616 FNT J94 OBK DCT QUOTE DCT MZV DCT KG66I DCT WELKY Q90 DNERO ANJLL4 |
| Aircraft | B77L/H-L/S |
Departure
| Time | N/A |
|---|---|
| Airport | Boston Logan International Airport (KBOS) |
Arrival
| Time | 2026-05-05 03:25 |
|---|---|
| Airport | Los Angeles International Airport (KLAX) |
| Time | Latitude | Longitude | Altitude | Speed | Heading |
|---|---|---|---|---|---|
| 2026-05-05 02:34 | 35.55625 | -113.38699 | 37955 ft | 367 kts | 244° |
| 2026-05-05 02:35 | 35.54648 | -113.41591 | 37953 ft | 366 kts | 244° |
| 2026-05-05 02:35 | 35.52694 | -113.47370 | 37941 ft | 367 kts | 244° |
| 2026-05-05 02:36 | 35.50740 | -113.53137 | 37941 ft | 366 kts | 244° |
| 2026-05-05 02:36 | 35.48784 | -113.58906 | 37934 ft | 367 kts | 244° |
| 2026-05-05 02:37 | 35.46841 | -113.64694 | 37927 ft | 367 kts | 244° |
| 2026-05-05 02:37 | 35.44906 | -113.70489 | 37935 ft | 366 kts | 244° |
| 2026-05-05 02:38 | 35.42954 | -113.76265 | 37916 ft | 367 kts | 244° |
| 2026-05-05 02:38 | 35.40995 | -113.82037 | 37923 ft | 367 kts | 244° |
| 2026-05-05 02:39 | 35.39032 | -113.87819 | 37932 ft | 367 kts | 244° |
| 2026-05-05 02:39 | 35.37067 | -113.93578 | 37926 ft | 367 kts | 244° |
| 2026-05-05 02:40 | 35.35096 | -113.99343 | 37920 ft | 367 kts | 244° |
| 2026-05-05 02:40 | 35.33125 | -114.05098 | 37928 ft | 366 kts | 243° |
| 2026-05-05 02:41 | 35.31153 | -114.10846 | 37919 ft | 365 kts | 243° |
| 2026-05-05 02:41 | 35.29184 | -114.16574 | 37911 ft | 365 kts | 243° |
| 2026-05-05 02:42 | 35.27210 | -114.22312 | 37891 ft | 366 kts | 243° |
| 2026-05-05 02:42 | 35.25234 | -114.28057 | 37880 ft | 366 kts | 243° |
| 2026-05-05 02:43 | 35.23286 | -114.33767 | 37843 ft | 366 kts | 243° |
| 2026-05-05 02:43 | 35.21296 | -114.39500 | 37825 ft | 367 kts | 243° |
| 2026-05-05 02:44 | 35.19297 | -114.45236 | 37812 ft | 367 kts | 243° |
| 2026-05-05 02:44 | 35.17292 | -114.50976 | 37804 ft | 367 kts | 243° |
| 2026-05-05 02:45 | 35.15288 | -114.56711 | 37800 ft | 367 kts | 243° |
| 2026-05-05 02:45 | 35.13286 | -114.62442 | 37800 ft | 367 kts | 243° |
| 2026-05-05 02:46 | 35.11309 | -114.68188 | 37802 ft | 367 kts | 243° |
| 2026-05-05 02:46 | 35.09313 | -114.73926 | 37806 ft | 367 kts | 242° |
| 2026-05-05 02:47 | 35.07648 | -114.78691 | 37811 ft | 367 kts | 242° |
| 2026-05-05 02:47 | 35.05323 | -114.85335 | 37815 ft | 366 kts | 242° |
| 2026-05-05 02:48 | 35.03314 | -114.91050 | 37821 ft | 366 kts | 241° |
| 2026-05-05 02:48 | 35.01416 | -114.95705 | 37825 ft | 366 kts | 238° |
| 2026-05-05 02:49 | 34.98969 | -115.01138 | 37829 ft | 366 kts | 238° |
| 2026-05-05 02:49 | 34.96562 | -115.06550 | 37832 ft | 365 kts | 238° |
| 2026-05-05 02:50 | 34.94175 | -115.12013 | 37835 ft | 365 kts | 239° |
| 2026-05-05 02:50 | 34.91825 | -115.17505 | 37834 ft | 365 kts | 238° |
| 2026-05-05 02:51 | 34.89448 | -115.22971 | 37841 ft | 365 kts | 238° |
| 2026-05-05 02:51 | 34.87062 | -115.28422 | 37847 ft | 365 kts | 238° |
| 2026-05-05 02:52 | 34.84674 | -115.33868 | 37852 ft | 365 kts | 238° |
| 2026-05-05 02:52 | 34.82285 | -115.39308 | 37857 ft | 364 kts | 238° |
| 2026-05-05 02:53 | 34.79898 | -115.44742 | 37863 ft | 364 kts | 238° |
| 2026-05-05 02:53 | 34.77641 | -115.50266 | 37870 ft | 365 kts | 241° |
| 2026-05-05 02:54 | 34.75639 | -115.55942 | 37889 ft | 365 kts | 242° |
| 2026-05-05 02:54 | 34.73624 | -115.61612 | 37896 ft | 365 kts | 241° |
| 2026-05-05 02:55 | 34.71550 | -115.67247 | 37901 ft | 365 kts | 240° |
| 2026-05-05 02:55 | 34.69464 | -115.72872 | 37906 ft | 364 kts | 240° |
| 2026-05-05 02:56 | 34.67382 | -115.78477 | 37916 ft | 364 kts | 240° |
| 2026-05-05 02:56 | 34.65351 | -115.83939 | 37917 ft | 340 kts | 240° |
| 2026-05-05 02:56 | 34.64400 | -115.86495 | 37917 ft | 325 kts | 239° |
| 2026-05-05 02:57 | 34.63492 | -115.88938 | 37913 ft | 310 kts | 239° |
| 2026-05-05 02:57 | 34.62626 | -115.91281 | 37914 ft | 299 kts | 239° |
| 2026-05-05 02:57 | 34.61782 | -115.93569 | 37914 ft | 297 kts | 239° |
| 2026-05-05 02:58 | 34.60051 | -115.98250 | 37916 ft | 314 kts | 239° |
| 2026-05-05 02:58 | 34.58205 | -116.03233 | 37914 ft | 334 kts | 240° |
| 2026-05-05 02:59 | 34.56260 | -116.08479 | 37909 ft | 352 kts | 240° |
| 2026-05-05 02:59 | 34.54214 | -116.14041 | 37357 ft | 372 kts | 240° |
| 2026-05-05 02:59 | 34.53178 | -116.16905 | 36946 ft | 367 kts | 240° |
| 2026-05-05 03:00 | 34.52155 | -116.19690 | 36317 ft | 356 kts | 240° |
| 2026-05-05 03:00 | 34.51146 | -116.22409 | 35398 ft | 352 kts | 240° |
| 2026-05-05 03:00 | 34.50149 | -116.25087 | 34736 ft | 344 kts | 240° |
| 2026-05-05 03:00 | 34.49182 | -116.27689 | 34179 ft | 333 kts | 240° |
| 2026-05-05 03:01 | 34.48238 | -116.30198 | 33704 ft | 323 kts | 240° |
| 2026-05-05 03:01 | 34.47317 | -116.32665 | 33196 ft | 322 kts | 240° |
| 2026-05-05 03:01 | 34.46375 | -116.35176 | 32711 ft | 334 kts | 240° |
| 2026-05-05 03:01 | 34.45391 | -116.37810 | 32161 ft | 353 kts | 240° |
| 2026-05-05 03:02 | 34.44449 | -116.40336 | 31652 ft | 367 kts | 240° |
| 2026-05-05 03:02 | 34.43389 | -116.43158 | 31089 ft | 367 kts | 240° |
| 2026-05-05 03:02 | 34.42336 | -116.45961 | 30546 ft | 364 kts | 240° |
| 2026-05-05 03:02 | 34.41293 | -116.48742 | 30001 ft | 361 kts | 239° |
| 2026-05-05 03:03 | 34.40200 | -116.51469 | 29421 ft | 358 kts | 238° |
| 2026-05-05 03:03 | 34.39067 | -116.54133 | 28910 ft | 354 kts | 238° |
| 2026-05-05 03:03 | 34.37962 | -116.56794 | 28339 ft | 352 kts | 239° |
| 2026-05-05 03:03 | 34.36866 | -116.59429 | 27820 ft | 349 kts | 239° |
| 2026-05-05 03:04 | 34.35780 | -116.62048 | 27268 ft | 347 kts | 240° |
| 2026-05-05 03:04 | 34.34714 | -116.64627 | 27031 ft | 337 kts | 240° |
| 2026-05-05 03:04 | 34.33688 | -116.67113 | 26950 ft | 324 kts | 240° |
| 2026-05-05 03:04 | 34.32706 | -116.69528 | 26724 ft | 318 kts | 240° |
| 2026-05-05 03:05 | 34.31748 | -116.71948 | 26149 ft | 321 kts | 241° |
| 2026-05-05 03:05 | 34.30770 | -116.74405 | 25650 ft | 329 kts | 241° |
| 2026-05-05 03:05 | 34.29754 | -116.76938 | 25167 ft | 338 kts | 242° |
| 2026-05-05 03:05 | 34.28725 | -116.79494 | 24653 ft | 339 kts | 242° |
| 2026-05-05 03:06 | 34.27693 | -116.82048 | 24161 ft | 337 kts | 242° |
| 2026-05-05 03:06 | 34.26679 | -116.84554 | 23660 ft | 335 kts | 242° |
| 2026-05-05 03:06 | 34.25642 | -116.87114 | 23154 ft | 334 kts | 243° |
| 2026-05-05 03:06 | 34.24637 | -116.89597 | 22646 ft | 333 kts | 243° |
| 2026-05-05 03:07 | 34.23619 | -116.92108 | 22144 ft | 332 kts | 243° |
| 2026-05-05 03:07 | 34.22607 | -116.94607 | 21657 ft | 331 kts | 243° |
| 2026-05-05 03:07 | 34.21597 | -116.97101 | 21154 ft | 330 kts | 243° |
| 2026-05-05 03:07 | 34.20699 | -116.99653 | 20653 ft | 330 kts | 248° |
| 2026-05-05 03:08 | 34.19967 | -117.02278 | 20179 ft | 330 kts | 251° |
| 2026-05-05 03:08 | 34.19302 | -117.04923 | 19680 ft | 329 kts | 251° |
| 2026-05-05 03:08 | 34.18616 | -117.07553 | 19215 ft | 328 kts | 250° |
| 2026-05-05 03:08 | 34.17910 | -117.10170 | 18733 ft | 327 kts | 250° |
| 2026-05-05 03:09 | 34.17202 | -117.12776 | 18263 ft | 326 kts | 250° |
| 2026-05-05 03:09 | 34.16494 | -117.15373 | 17789 ft | 325 kts | 250° |
| 2026-05-05 03:09 | 34.15788 | -117.17975 | 17276 ft | 326 kts | 250° |
| 2026-05-05 03:09 | 34.15078 | -117.20569 | 16817 ft | 325 kts | 250° |
| 2026-05-05 03:10 | 34.14366 | -117.23153 | 16364 ft | 324 kts | 250° |
| 2026-05-05 03:10 | 34.13656 | -117.25724 | 15916 ft | 322 kts | 250° |
| 2026-05-05 03:10 | 34.12948 | -117.28285 | 15473 ft | 321 kts | 250° |
| 2026-05-05 03:10 | 34.12242 | -117.30834 | 15037 ft | 320 kts | 250° |
| 2026-05-05 03:11 | 34.11540 | -117.33371 | 14605 ft | 318 kts | 251° |
| 2026-05-05 03:11 | 34.10843 | -117.35897 | 14177 ft | 317 kts | 251° |
| 2026-05-05 03:11 | 34.10150 | -117.38417 | 13766 ft | 317 kts | 251° |
| 2026-05-05 03:11 | 34.09511 | -117.40971 | 13365 ft | 318 kts | 253° |
| 2026-05-05 03:12 | 34.08897 | -117.43528 | 12966 ft | 316 kts | 253° |
| 2026-05-05 03:12 | 34.08278 | -117.46028 | 12569 ft | 314 kts | 252° |
| 2026-05-05 03:12 | 34.07648 | -117.48540 | 12179 ft | 312 kts | 252° |
| 2026-05-05 03:12 | 34.06973 | -117.51007 | 11869 ft | 307 kts | 249° |
| 2026-05-05 03:13 | 34.06177 | -117.53368 | 11606 ft | 301 kts | 246° |
| 2026-05-05 03:13 | 34.05322 | -117.55663 | 11358 ft | 300 kts | 245° |
| 2026-05-05 03:13 | 34.04444 | -117.57952 | 11101 ft | 301 kts | 245° |
| 2026-05-05 03:13 | 34.03589 | -117.60249 | 10851 ft | 300 kts | 246° |
| 2026-05-05 03:14 | 34.02756 | -117.62547 | 10603 ft | 297 kts | 246° |
| 2026-05-05 03:14 | 34.01938 | -117.64806 | 10358 ft | 291 kts | 246° |
| 2026-05-05 03:14 | 34.01149 | -117.67033 | 10125 ft | 286 kts | 248° |
| 2026-05-05 03:14 | 34.00517 | -117.69287 | 9864 ft | 282 kts | 256° |
| 2026-05-05 03:15 | 34.00168 | -117.71578 | 9696 ft | 275 kts | 262° |
| 2026-05-05 03:15 | 33.99978 | -117.73880 | 9280 ft | 278 kts | 266° |
| 2026-05-05 03:15 | 33.99909 | -117.76196 | 8976 ft | 275 kts | 267° |
| 2026-05-05 03:15 | 33.99760 | -117.78476 | 8682 ft | 270 kts | 264° |
| 2026-05-05 03:16 | 33.99540 | -117.80681 | 8403 ft | 261 kts | 262° |
| 2026-05-05 03:16 | 33.99258 | -117.82835 | 8131 ft | 259 kts | 261° |
| 2026-05-05 03:16 | 33.99007 | -117.84977 | 7855 ft | 258 kts | 263° |
| 2026-05-05 03:16 | 33.98804 | -117.87119 | 7582 ft | 256 kts | 264° |
| 2026-05-05 03:17 | 33.98630 | -117.89251 | 7308 ft | 255 kts | 264° |
| 2026-05-05 03:17 | 33.98463 | -117.91373 | 7037 ft | 254 kts | 263° |
| 2026-05-05 03:17 | 33.98256 | -117.93481 | 6769 ft | 253 kts | 263° |
| 2026-05-05 03:17 | 33.98039 | -117.95574 | 6505 ft | 251 kts | 262° |
| 2026-05-05 03:18 | 33.97828 | -117.97656 | 6236 ft | 250 kts | 263° |
| 2026-05-05 03:18 | 33.97640 | -117.99753 | 5970 ft | 253 kts | 263° |
| 2026-05-05 03:18 | 33.97443 | -118.01860 | 5703 ft | 252 kts | 263° |
| 2026-05-05 03:18 | 33.97239 | -118.03951 | 5435 ft | 251 kts | 263° |
| 2026-05-05 03:19 | 33.96822 | -118.08100 | 5009 ft | 249 kts | 262° |
| 2026-05-05 03:19 | 33.96610 | -118.10186 | 4631 ft | 252 kts | 262° |
| 2026-05-05 03:19 | 33.96396 | -118.12288 | 4311 ft | 253 kts | 262° |
| 2026-05-05 03:20 | 33.96180 | -118.14400 | 3976 ft | 255 kts | 262° |
| 2026-05-05 03:20 | 33.95967 | -118.16480 | 3643 ft | 241 kts | 262° |
| 2026-05-05 03:20 | 33.95770 | -118.18404 | 3314 ft | 222 kts | 262° |
| 2026-05-05 03:20 | 33.95588 | -118.20176 | 3051 ft | 204 kts | 262° |
| 2026-05-05 03:21 | 33.95423 | -118.21795 | 2795 ft | 188 kts | 262° |
| 2026-05-05 03:21 | 33.95274 | -118.23246 | 2557 ft | 182 kts | 262° |
| 2026-05-05 03:21 | 33.95120 | -118.24755 | 2322 ft | 177 kts | 262° |
| 2026-05-05 03:21 | 33.94976 | -118.26166 | 2098 ft | 165 kts | 262° |
| 2026-05-05 03:22 | 33.94840 | -118.27489 | 1882 ft | 152 kts | 262° |
| 2026-05-05 03:22 | 33.94714 | -118.28722 | 1691 ft | 145 kts | 262° |
| 2026-05-05 03:22 | 33.94592 | -118.29918 | 1512 ft | 145 kts | 262° |
| 2026-05-05 03:22 | 33.94468 | -118.31127 | 1305 ft | 146 kts | 261° |
| 2026-05-05 03:23 | 33.94344 | -118.32336 | 1107 ft | 145 kts | 261° |
| 2026-05-05 03:23 | 33.94222 | -118.33528 | 913 ft | 142 kts | 262° |
| 2026-05-05 03:23 | 33.94102 | -118.34704 | 725 ft | 141 kts | 262° |
| 2026-05-05 03:23 | 33.93982 | -118.35877 | 543 ft | 140 kts | 262° |
| 2026-05-05 03:24 | 33.93865 | -118.37020 | 358 ft | 139 kts | 263° |
| 2026-05-05 03:24 | 33.93745 | -118.38190 | 177 ft | 139 kts | 263° |
| 2026-05-05 03:24 | 33.93636 | -118.39258 | 140 ft | 114 kts | 263° |
| 2026-05-05 03:24 | 33.93554 | -118.40060 | 140 ft | 79 kts | 263° |
| 2026-05-05 03:25 | 33.93502 | -118.40568 | 140 ft | 43 kts | 263° |
| 2026-05-05 03:25 | 33.93480 | -118.40787 | 140 ft | 14 kts | 263° |
| 2026-05-05 03:25 | 33.93477 | -118.40908 | 140 ft | 14 kts | 275° |
| 2026-05-05 03:25 | 33.93489 | -118.41024 | 140 ft | 13 kts | 284° |
| 2026-05-05 03:26 | 33.93517 | -118.41132 | 140 ft | 15 kts | 292° |
| 2026-05-05 03:26 | 33.93564 | -118.41236 | 140 ft | 14 kts | 320° |
| 2026-05-05 03:26 | 33.93650 | -118.41276 | 140 ft | 13 kts | 351° |
| 2026-05-05 03:26 | 33.93737 | -118.41276 | 140 ft | 12 kts | 38° |
| 2026-05-05 03:27 | 33.93756 | -118.41182 | 140 ft | 12 kts | 84° |
| 2026-05-05 03:27 | 33.93765 | -118.41088 | 140 ft | 11 kts | 82° |
| 2026-05-05 03:27 | 33.93775 | -118.41002 | 140 ft | 10 kts | 82° |
| 2026-05-05 03:27 | 33.93784 | -118.40920 | 140 ft | 10 kts | 82° |
| 2026-05-05 03:28 | 33.93792 | -118.40844 | 140 ft | 9 kts | 82° |
| 2026-05-05 03:28 | 33.93800 | -118.40770 | 140 ft | 9 kts | 82° |
| 2026-05-05 03:28 | 33.93808 | -118.40701 | 140 ft | 8 kts | 83° |
| 2026-05-05 03:28 | 33.93814 | -118.40636 | 140 ft | 8 kts | 83° |
| 2026-05-05 03:29 | 33.93820 | -118.40573 | 140 ft | 7 kts | 83° |
| 2026-05-05 03:29 | 33.93826 | -118.40514 | 140 ft | 7 kts | 83° |
| 2026-05-05 03:29 | 33.93833 | -118.40449 | 140 ft | 10 kts | 83° |
| 2026-05-05 03:29 | 33.93841 | -118.40368 | 140 ft | 10 kts | 83° |
| 2026-05-05 03:30 | 33.93849 | -118.40290 | 140 ft | 9 kts | 83° |
| 2026-05-05 03:30 | 33.93855 | -118.40216 | 140 ft | 9 kts | 83° |
| 2026-05-05 03:30 | 33.93861 | -118.40147 | 140 ft | 8 kts | 83° |
| 2026-05-05 03:30 | 33.93872 | -118.40083 | 140 ft | 8 kts | 52° |
| 2026-05-05 03:31 | 33.93919 | -118.40062 | 140 ft | 7 kts | 10° |
| 2026-05-05 03:31 | 33.93953 | -118.40026 | 140 ft | 7 kts | 68° |
| 2026-05-05 03:31 | 33.93960 | -118.39973 | 140 ft | 6 kts | 86° |
| 2026-05-05 03:31 | 33.93968 | -118.39925 | 140 ft | 6 kts | 55° |
| 2026-05-05 03:32 | 33.94004 | -118.39915 | 140 ft | 5 kts | 354° |
| 2026-05-05 03:32 | 33.94038 | -118.39919 | 140 ft | 1 kts | 354° |
| 2026-05-05 03:32 | 33.94041 | -118.39920 | 140 ft | 0 kts | 354° |